sensor_id;sensor_type;location;lat;lon;timestamp;pressure;altitude;pressure_sealevel;temperature;humidity
62600;BME280;48671;48.922;2.346;2022-12-01T00:00:45;102346.25;;;7.18;75.84
62600;BME280;48671;48.922;2.346;2022-12-01T00:03:11;102335.88;;;7.09;75.05
62600;BME280;48671;48.922;2.346;2022-12-01T00:05:36;102343.69;;;7.19;76.43
62600;BME280;48671;48.922;2.346;2022-12-01T00:08:02;102334.19;;;7.27;75.67
62600;BME280;48671;48.922;2.346;2022-12-01T00:10:29;102335.91;;;7.27;75.70
62600;BME280;48671;48.922;2.346;2022-12-01T00:12:56;102338.47;;;7.22;75.30
62600;BME280;48671;48.922;2.346;2022-12-01T00:15:24;102345.41;;;7.22;75.33
62600;BME280;48671;48.922;2.346;2022-12-01T00:17:50;102340.22;;;7.17;75.11
62600;BME280;48671;48.922;2.346;2022-12-01T00:20:16;102341.06;;;7.15;75.35
62600;BME280;48671;48.922;2.346;2022-12-01T00:22:43;102348.84;;;7.18;75.87
62600;BME280;48671;48.922;2.346;2022-12-01T00:25:08;102335.91;;;7.15;76.04
62600;BME280;48671;48.922;2.346;2022-12-01T00:27:34;102345.41;;;7.17;75.19
62600;BME280;48671;48.922;2.346;2022-12-01T00:29:59;102335.03;;;7.16;75.52
62600;BME280;48671;48.922;2.346;2022-12-01T00:32:24;102340.22;;;7.19;75.30
62600;BME280;48671;48.922;2.346;2022-12-01T00:34:49;102340.22;;;7.19;75.33
62600;BME280;48671;48.922;2.346;2022-12-01T00:37:15;102348.00;;;7.20;75.31
62600;BME280;48671;48.922;2.346;2022-12-01T00:39:40;102341.97;;;7.17;74.61
62600;BME280;48671;48.922;2.346;2022-12-01T00:42:05;102350.56;;;7.16;75.01
62600;BME280;48671;48.922;2.346;2022-12-01T00:44:31;102339.34;;;7.11;75.06
62600;BME280;48671;48.922;2.346;2022-12-01T00:46:56;102335.03;;;7.13;74.86
62600;BME280;48671;48.922;2.346;2022-12-01T00:49:21;102341.06;;;7.06;74.79
62600;BME280;48671;48.922;2.346;2022-12-01T00:51:47;102346.25;;;7.09;75.03
62600;BME280;48671;48.922;2.346;2022-12-01T00:54:12;102334.16;;;7.03;74.59
62600;BME280;48671;48.922;2.346;2022-12-01T00:56:37;102341.06;;;7.06;74.60
62600;BME280;48671;48.922;2.346;2022-12-01T00:59:03;102331.56;;;7.01;74.79
62600;BME280;48671;48.922;2.346;2022-12-01T01:01:28;102335.84;;;6.99;74.87
62600;BME280;48671;48.922;2.346;2022-12-01T01:03:53;102327.25;;;6.97;74.91
62600;BME280;48671;48.922;2.346;2022-12-01T01:06:18;102333.28;;;6.93;74.44
62600;BME280;48671;48.922;2.346;2022-12-01T01:08:44;102322.91;;;6.92;74.72
62600;BME280;48671;48.922;2.346;2022-12-01T01:11:09;102326.38;;;6.91;74.82
62600;BME280;48671;48.922;2.346;2022-12-01T01:13:35;102334.97;;;6.90;74.71
62600;BME280;48671;48.922;2.346;2022-12-01T01:16:16;102333.25;;;6.89;74.87
62600;BME280;48671;48.922;2.346;2022-12-01T01:18:42;102325.50;;;6.89;74.92
62600;BME280;48671;48.922;2.346;2022-12-01T01:21:11;102342.75;;;6.91;75.12
62600;BME280;48671;48.922;2.346;2022-12-01T01:23:37;102346.19;;;6.92;74.55
62600;BME280;48671;48.922;2.346;2022-12-01T01:26:05;102343.63;;;6.93;74.57
62600;BME280;48671;48.922;2.346;2022-12-01T01:28:31;102332.41;;;6.94;74.41
62600;BME280;48671;48.922;2.346;2022-12-01T01:30:57;102347.91;;;6.93;74.16
62600;BME280;48671;48.922;2.346;2022-12-01T01:33:23;102341.03;;;6.89;74.67
62600;BME280;48671;48.922;2.346;2022-12-01T01:35:48;102341.03;;;6.87;74.49
62600;BME280;48671;48.922;2.346;2022-12-01T01:38:13;102349.66;;;6.91;74.54
62600;BME280;48671;48.922;2.346;2022-12-01T01:40:43;102358.28;;;6.94;74.63
62600;BME280;48671;48.922;2.346;2022-12-01T01:43:17;102356.53;;;6.86;74.65
62600;BME280;48671;48.922;2.346;2022-12-01T01:45:43;102359.97;;;6.78;74.65
62600;BME280;48671;48.922;2.346;2022-12-01T01:48:10;102362.53;;;6.71;74.38
62600;BME280;48671;48.922;2.346;2022-12-01T01:50:37;102361.63;;;6.63;74.40
62600;BME280;48671;48.922;2.346;2022-12-01T01:53:07;102363.38;;;6.65;74.96
62600;BME280;48671;48.922;2.346;2022-12-01T01:55:34;102371.13;;;6.61;75.04
62600;BME280;48671;48.922;2.346;2022-12-01T01:58:07;102362.47;;;6.57;74.84
62600;BME280;48671;48.922;2.346;2022-12-01T02:00:33;102362.47;;;6.51;75.54
62600;BME280;48671;48.922;2.346;2022-12-01T02:02:59;102362.44;;;6.52;75.23
62600;BME280;48671;48.922;2.346;2022-12-01T02:05:29;102355.56;;;6.53;75.15
62600;BME280;48671;48.922;2.346;2022-12-01T02:07:56;102352.97;;;6.53;75.33
62600;BME280;48671;48.922;2.346;2022-12-01T02:10:35;102355.56;;;6.53;75.19
62600;BME280;48671;48.922;2.346;2022-12-01T02:20:43;102346.06;;;6.53;75.41
62600;BME280;48671;48.922;2.346;2022-12-01T02:31:57;102343.50;;;6.60;75.42
62600;BME280;48671;48.922;2.346;2022-12-01T02:34:59;102347.84;;;6.62;75.08
62600;BME280;48671;48.922;2.346;2022-12-01T02:42:43;102343.50;;;6.56;75.29
62600;BME280;48671;48.922;2.346;2022-12-01T02:48:01;102332.25;;;6.50;75.49
62600;BME280;48671;48.922;2.346;2022-12-01T02:50:31;102334.88;;;6.51;75.85
62600;BME280;48671;48.922;2.346;2022-12-01T02:53:00;102341.78;;;6.54;75.37
62600;BME280;48671;48.922;2.346;2022-12-01T02:55:27;102330.53;;;6.49;75.61
62600;BME280;48671;48.922;2.346;2022-12-01T02:57:52;102334.84;;;6.50;75.45
62600;BME280;48671;48.922;2.346;2022-12-01T03:00:18;102332.28;;;6.48;75.36
62600;BME280;48671;48.922;2.346;2022-12-01T03:02:59;102333.13;;;6.44;75.48
62600;BME280;48671;48.922;2.346;2022-12-01T03:06:01;102333.13;;;6.44;75.74
62600;BME280;48671;48.922;2.346;2022-12-01T03:08:54;102332.25;;;6.42;75.66
62600;BME280;48671;48.922;2.346;2022-12-01T03:11:32;102324.44;;;6.31;75.97
62600;BME280;48671;48.922;2.346;2022-12-01T03:16:48;102335.66;;;6.37;75.51
62600;BME280;48671;48.922;2.346;2022-12-01T03:19:20;102331.34;;;6.36;76.05
62600;BME280;48671;48.922;2.346;2022-12-01T03:22:03;102331.31;;;6.34;75.98
62600;BME280;48671;48.922;2.346;2022-12-01T03:24:33;102323.56;;;6.31;76.08
62600;BME280;48671;48.922;2.346;2022-12-01T03:27:01;102326.16;;;6.34;76.19
62600;BME280;48671;48.922;2.346;2022-12-01T03:29:37;102325.28;;;6.33;75.53
62600;BME280;48671;48.922;2.346;2022-12-01T03:32:19;102330.47;;;6.32;75.98
62600;BME280;48671;48.922;2.346;2022-12-01T03:35:06;102325.28;;;6.30;75.88
62600;BME280;48671;48.922;2.346;2022-12-01T03:37:48;102337.34;;;6.28;75.76
62600;BME280;48671;48.922;2.346;2022-12-01T03:40:19;102334.78;;;6.28;76.08
62600;BME280;48671;48.922;2.346;2022-12-01T03:42:51;102331.31;;;6.25;75.88
62600;BME280;48671;48.922;2.346;2022-12-01T03:48:10;102336.50;;;6.28;75.69
62600;BME280;48671;48.922;2.346;2022-12-01T03:50:49;102335.59;;;6.26;76.05
62600;BME280;48671;48.922;2.346;2022-12-01T03:53:25;102335.59;;;6.23;76.18
62600;BME280;48671;48.922;2.346;2022-12-01T03:55:57;102333.00;;;6.21;75.72
62600;BME280;48671;48.922;2.346;2022-12-01T03:58:46;102336.44;;;6.23;75.76
62600;BME280;48671;48.922;2.346;2022-12-01T04:01:13;102323.50;;;6.20;76.02
62600;BME280;48671;48.922;2.346;2022-12-01T04:03:38;102326.09;;;6.16;76.07
62600;BME280;48671;48.922;2.346;2022-12-01T04:06:04;102334.72;;;6.21;76.00
62600;BME280;48671;48.922;2.346;2022-12-01T04:08:29;102327.84;;;6.21;76.21
62600;BME280;48671;48.922;2.346;2022-12-01T04:10:55;102320.06;;;6.18;75.75
62600;BME280;48671;48.922;2.346;2022-12-01T04:13:21;102327.84;;;6.23;75.76
62600;BME280;48671;48.922;2.346;2022-12-01T04:15:52;102317.50;;;6.21;75.76
62600;BME280;48671;48.922;2.346;2022-12-01T04:18:18;102320.06;;;6.18;75.60
62600;BME280;48671;48.922;2.346;2022-12-01T04:20:44;102321.81;;;6.27;76.09
62600;BME280;48671;48.922;2.346;2022-12-01T04:23:10;102323.56;;;6.25;75.69
62600;BME280;48671;48.922;2.346;2022-12-01T04:26:03;102320.06;;;6.24;76.06
62600;BME280;48671;48.922;2.346;2022-12-01T04:28:29;102324.41;;;6.22;76.02
62600;BME280;48671;48.922;2.346;2022-12-01T04:30:54;102322.66;;;6.23;75.60
62600;BME280;48671;48.922;2.346;2022-12-01T04:33:20;102325.25;;;6.20;76.18
62600;BME280;48671;48.922;2.346;2022-12-01T04:35:55;102319.16;;;6.15;75.97
62600;BME280;48671;48.922;2.346;2022-12-01T04:38:20;102328.66;;;6.13;76.16
62600;BME280;48671;48.922;2.346;2022-12-01T04:40:45;102317.44;;;6.09;76.20
62600;BME280;48671;48.922;2.346;2022-12-01T04:43:11;102325.13;;;6.04;76.02
62600;BME280;48671;48.922;2.346;2022-12-01T04:45:37;102323.44;;;6.02;76.28
62600;BME280;48671;48.922;2.346;2022-12-01T04:48:02;102321.66;;;5.96;76.46
62600;BME280;48671;48.922;2.346;2022-12-01T04:50:29;102320.78;;;5.97;76.10
62600;BME280;48671;48.922;2.346;2022-12-01T04:52:54;102325.09;;;5.97;75.81
62600;BME280;48671;48.922;2.346;2022-12-01T04:55:19;102331.13;;;5.96;76.69
62600;BME280;48671;48.922;2.346;2022-12-01T04:57:46;102328.56;;;5.97;76.40
62600;BME280;48671;48.922;2.346;2022-12-01T05:00:12;102329.38;;;5.95;76.47
62600;BME280;48671;48.922;2.346;2022-12-01T05:02:39;102325.88;;;5.91;76.04
62600;BME280;48671;48.922;2.346;2022-12-01T05:05:08;102333.69;;;5.93;76.35
62600;BME280;48671;48.922;2.346;2022-12-01T05:07:33;102331.97;;;5.93;76.32
62600;BME280;48671;48.922;2.346;2022-12-01T05:09:58;102338.88;;;5.96;76.56
62600;BME280;48671;48.922;2.346;2022-12-01T05:12:24;102326.81;;;5.93;76.12
62600;BME280;48671;48.922;2.346;2022-12-01T05:14:49;102328.47;;;5.90;76.05
62600;BME280;48671;48.922;2.346;2022-12-01T05:17:14;102334.56;;;5.93;76.38
62600;BME280;48671;48.922;2.346;2022-12-01T05:19:40;102327.59;;;5.86;76.42
62600;BME280;48671;48.922;2.346;2022-12-01T05:22:23;102331.91;;;5.90;76.66
62600;BME280;48671;48.922;2.346;2022-12-01T05:24:49;102337.09;;;5.90;76.07
62600;BME280;48671;48.922;2.346;2022-12-01T05:27:14;102326.75;;;5.89;76.26
62600;BME280;48671;48.922;2.346;2022-12-01T05:29:39;102340.53;;;5.91;75.86
62600;BME280;48671;48.922;2.346;2022-12-01T05:32:05;102332.78;;;5.89;76.27
62600;BME280;48671;48.922;2.346;2022-12-01T05:34:30;102327.63;;;5.89;75.93
62600;BME280;48671;48.922;2.346;2022-12-01T05:36:55;102337.16;;;5.96;76.15
62600;BME280;48671;48.922;2.346;2022-12-01T05:39:21;102332.00;;;5.98;76.05
62600;BME280;48671;48.922;2.346;2022-12-01T05:41:46;102338.88;;;5.96;75.62
62600;BME280;48671;48.922;2.346;2022-12-01T05:44:11;102333.69;;;5.93;75.80
62600;BME280;48671;48.922;2.346;2022-12-01T05:46:36;102335.34;;;5.87;75.41
62600;BME280;48671;48.922;2.346;2022-12-01T05:49:02;102335.38;;;5.92;75.47
62600;BME280;48671;48.922;2.346;2022-12-01T05:51:27;102340.59;;;5.97;75.35
62600;BME280;48671;48.922;2.346;2022-12-01T05:53:52;102338.03;;;5.95;75.33
62600;BME280;48671;48.922;2.346;2022-12-01T05:56:18;102347.50;;;5.96;75.30
62600;BME280;48671;48.922;2.346;2022-12-01T05:58:43;102345.78;;;5.95;75.67
62600;BME280;48671;48.922;2.346;2022-12-01T06:01:08;102338.81;;;5.91;75.61
62600;BME280;48671;48.922;2.346;2022-12-01T06:03:34;102344.03;;;5.93;75.42
62600;BME280;48671;48.922;2.346;2022-12-01T06:06:00;102347.47;;;5.93;75.32
62600;BME280;48671;48.922;2.346;2022-12-01T06:08:25;102333.69;;;5.94;75.33
62600;BME280;48671;48.922;2.346;2022-12-01T06:10:51;102336.28;;;5.94;75.28
62600;BME280;48671;48.922;2.346;2022-12-01T06:13:16;102341.44;;;5.94;75.40
62600;BME280;48671;48.922;2.346;2022-12-01T06:15:42;102338.88;;;5.96;74.92
62600;BME280;48671;48.922;2.346;2022-12-01T06:18:07;102338.88;;;5.96;75.30
62600;BME280;48671;48.922;2.346;2022-12-01T06:20:32;102337.97;;;5.92;75.05
62600;BME280;48671;48.922;2.346;2022-12-01T06:22:58;102336.28;;;5.94;74.97
62600;BME280;48671;48.922;2.346;2022-12-01T06:25:23;102341.47;;;5.97;75.20
62600;BME280;48671;48.922;2.346;2022-12-01T06:27:49;102328.56;;;5.97;74.72
62600;BME280;48671;48.922;2.346;2022-12-01T06:30:14;102341.50;;;6.02;75.06
62600;BME280;48671;48.922;2.346;2022-12-01T06:32:39;102348.41;;;6.04;75.15
62600;BME280;48671;48.922;2.346;2022-12-01T06:35:05;102346.69;;;6.06;74.94
62600;BME280;48671;48.922;2.346;2022-12-01T06:37:31;102347.59;;;6.08;74.71
62600;BME280;48671;48.922;2.346;2022-12-01T06:39:56;102344.09;;;6.08;74.47
62600;BME280;48671;48.922;2.346;2022-12-01T06:42:21;102344.16;;;6.13;74.79
62600;BME280;48671;48.922;2.346;2022-12-01T06:44:47;102338.97;;;6.14;74.14
62600;BME280;48671;48.922;2.346;2022-12-01T06:47:12;102338.13;;;6.12;74.42
62600;BME280;48671;48.922;2.346;2022-12-01T06:49:40;102347.63;;;6.18;74.25
62600;BME280;48671;48.922;2.346;2022-12-01T06:52:05;102351.84;;;6.02;74.22
62600;BME280;48671;48.922;2.346;2022-12-01T06:54:30;102364.78;;;6.05;74.42
62600;BME280;48671;48.922;2.346;2022-12-01T06:56:55;102369.94;;;6.06;74.70
62600;BME280;48671;48.922;2.346;2022-12-01T06:59:22;102362.19;;;6.06;74.48
62600;BME280;48671;48.922;2.346;2022-12-01T07:01:48;102378.63;;;6.12;74.84
62600;BME280;48671;48.922;2.346;2022-12-01T07:04:14;102369.13;;;6.14;74.67
62600;BME280;48671;48.922;2.346;2022-12-01T07:06:39;102368.28;;;6.18;74.32
62600;BME280;48671;48.922;2.346;2022-12-01T07:09:04;102370.84;;;6.15;74.26
62600;BME280;48671;48.922;2.346;2022-12-01T07:11:30;102377.75;;;6.14;74.45
62600;BME280;48671;48.922;2.346;2022-12-01T07:13:56;102389.84;;;6.18;74.62
62600;BME280;48671;48.922;2.346;2022-12-01T07:16:22;102393.28;;;6.17;74.33
62600;BME280;48671;48.922;2.346;2022-12-01T07:18:47;102392.44;;;6.20;74.41
62600;BME280;48671;48.922;2.346;2022-12-01T07:21:13;102401.97;;;6.25;74.10
62600;BME280;48671;48.922;2.346;2022-12-01T07:23:39;102399.38;;;6.30;74.33
62600;BME280;48671;48.922;2.346;2022-12-01T07:26:16;102402.78;;;6.21;73.29
62600;BME280;48671;48.922;2.346;2022-12-01T07:28:42;102399.31;;;6.19;74.09
62600;BME280;48671;48.922;2.346;2022-12-01T07:31:11;102401.91;;;6.19;74.22
62600;BME280;48671;48.922;2.346;2022-12-01T07:33:37;102405.34;;;6.20;73.56
62600;BME280;48671;48.922;2.346;2022-12-01T07:36:03;102404.44;;;6.15;74.19
62600;BME280;48671;48.922;2.346;2022-12-01T07:38:30;102410.53;;;6.20;73.85
62600;BME280;48671;48.922;2.346;2022-12-01T07:41:13;102414.81;;;6.16;73.98
62600;BME280;48671;48.922;2.346;2022-12-01T07:43:39;102421.69;;;6.14;73.63
62600;BME280;48671;48.922;2.346;2022-12-01T07:46:13;102421.66;;;6.09;73.56
62600;BME280;48671;48.922;2.346;2022-12-01T07:48:39;102423.34;;;6.07;74.06
62600;BME280;48671;48.922;2.346;2022-12-01T07:51:06;102426.81;;;6.05;74.24
62600;BME280;48671;48.922;2.346;2022-12-01T07:53:33;102435.41;;;6.07;74.44
62600;BME280;48671;48.922;2.346;2022-12-01T07:55:59;102439.75;;;6.11;73.86
62600;BME280;48671;48.922;2.346;2022-12-01T07:58:24;102438.84;;;6.07;73.74
62600;BME280;48671;48.922;2.346;2022-12-01T08:00:51;102434.56;;;6.09;73.71
62600;BME280;48671;48.922;2.346;2022-12-01T08:03:16;102440.59;;;6.08;73.72
62600;BME280;48671;48.922;2.346;2022-12-01T08:05:42;102446.59;;;6.04;74.13
62600;BME280;48671;48.922;2.346;2022-12-01T08:08:07;102452.59;;;6.00;73.91
62600;BME280;48671;48.922;2.346;2022-12-01T08:10:32;102453.44;;;5.99;74.17
62600;BME280;48671;48.922;2.346;2022-12-01T08:12:58;102443.97;;;6.00;74.32
62600;BME280;48671;48.922;2.346;2022-12-01T08:15:23;102453.47;;;6.02;74.16
62600;BME280;48671;48.922;2.346;2022-12-01T08:17:48;102460.34;;;6.00;74.05
62600;BME280;48671;48.922;2.346;2022-12-01T08:20:14;102456.88;;;5.95;73.93
62600;BME280;48671;48.922;2.346;2022-12-01T08:22:40;102453.44;;;5.96;73.96
62600;BME280;48671;48.922;2.346;2022-12-01T08:25:05;102461.16;;;5.98;74.31
62600;BME280;48671;48.922;2.346;2022-12-01T08:27:31;102458.63;;;5.99;74.10
62600;BME280;48671;48.922;2.346;2022-12-01T08:29:56;102456.03;;;5.99;74.47
62600;BME280;48671;48.922;2.346;2022-12-01T08:32:21;102454.28;;;5.97;74.25
62600;BME280;48671;48.922;2.346;2022-12-01T08:34:47;102448.28;;;6.01;74.50
62600;BME280;48671;48.922;2.346;2022-12-01T08:37:13;102456.97;;;6.09;74.02
62600;BME280;48671;48.922;2.346;2022-12-01T08:39:38;102447.50;;;6.11;73.89
62600;BME280;48671;48.922;2.346;2022-12-01T08:42:04;102454.41;;;6.12;74.30
62600;BME280;48671;48.922;2.346;2022-12-01T08:44:29;102456.13;;;6.15;74.30
62600;BME280;48671;48.922;2.346;2022-12-01T08:46:55;102463.09;;;6.22;74.71
62600;BME280;48671;48.922;2.346;2022-12-01T08:49:20;102454.47;;;6.23;74.26
62600;BME280;48671;48.922;2.346;2022-12-01T08:51:47;102457.06;;;6.23;73.94
62600;BME280;48671;48.922;2.346;2022-12-01T08:54:12;102454.50;;;6.21;74.53
62600;BME280;48671;48.922;2.346;2022-12-01T08:56:40;102463.09;;;6.22;74.19
62600;BME280;48671;48.922;2.346;2022-12-01T08:59:06;102450.13;;;6.17;73.64
62600;BME280;48671;48.922;2.346;2022-12-01T09:01:32;102463.94;;;6.21;74.12
62600;BME280;48671;48.922;2.346;2022-12-01T09:03:59;102465.72;;;6.25;74.04
62600;BME280;48671;48.922;2.346;2022-12-01T09:06:43;102458.81;;;6.27;73.71
62600;BME280;48671;48.922;2.346;2022-12-01T09:09:11;102468.28;;;6.23;73.74
62600;BME280;48671;48.922;2.346;2022-12-01T09:11:37;102457.03;;;6.17;73.57
62600;BME280;48671;48.922;2.346;2022-12-01T09:14:03;102465.72;;;6.25;74.31
62600;BME280;48671;48.922;2.346;2022-12-01T09:16:29;102457.94;;;6.23;73.74
62600;BME280;48671;48.922;2.346;2022-12-01T09:18:54;102455.34;;;6.23;73.94
62600;BME280;48671;48.922;2.346;2022-12-01T09:21:22;102463.16;;;6.29;74.05
62600;BME280;48671;48.922;2.346;2022-12-01T09:23:48;102453.69;;;6.31;74.00
62600;BME280;48671;48.922;2.346;2022-12-01T09:26:16;102455.44;;;6.36;74.17
62600;BME280;48671;48.922;2.346;2022-12-01T09:28:47;102461.50;;;6.38;73.81
62600;BME280;48671;48.922;2.346;2022-12-01T09:31:14;102460.66;;;6.42;73.60
62600;BME280;48671;48.922;2.346;2022-12-01T09:33:39;102458.03;;;6.39;73.33
62600;BME280;48671;48.922;2.346;2022-12-01T09:36:07;102467.56;;;6.41;73.35
62600;BME280;48671;48.922;2.346;2022-12-01T09:38:34;102466.72;;;6.48;73.51
62600;BME280;48671;48.922;2.346;2022-12-01T09:41:03;102458.91;;;6.39;73.70
62600;BME280;48671;48.922;2.346;2022-12-01T09:43:44;102466.66;;;6.39;73.45
62600;BME280;48671;48.922;2.346;2022-12-01T09:46:15;102470.13;;;6.38;73.46
62600;BME280;48671;48.922;2.346;2022-12-01T09:48:45;102471.81;;;6.35;73.65
62600;BME280;48671;48.922;2.346;2022-12-01T09:51:19;102461.50;;;6.41;73.91
62600;BME280;48671;48.922;2.346;2022-12-01T09:53:48;102465.88;;;6.51;73.27
62600;BME280;48671;48.922;2.346;2022-12-01T09:58:53;102459.84;;;6.52;72.77
62600;BME280;48671;48.922;2.346;2022-12-01T10:01:31;102454.66;;;6.49;73.19
62600;BME280;48671;48.922;2.346;2022-12-01T10:04:02;102461.53;;;6.47;73.10
62600;BME280;48671;48.922;2.346;2022-12-01T10:06:37;102460.72;;;6.52;73.33
62600;BME280;48671;48.922;2.346;2022-12-01T10:11:58;102452.13;;;6.58;72.49
62600;BME280;48671;48.922;2.346;2022-12-01T10:14:28;102458.19;;;6.63;72.97
62600;BME280;48671;48.922;2.346;2022-12-01T10:17:17;102448.72;;;6.70;72.81
62600;BME280;48671;48.922;2.346;2022-12-01T10:20:02;102448.75;;;6.71;72.85
62600;BME280;48671;48.922;2.346;2022-12-01T10:23:09;102444.47;;;6.79;72.68
62600;BME280;48671;48.922;2.346;2022-12-01T10:25:56;102444.50;;;6.81;72.75
62600;BME280;48671;48.922;2.346;2022-12-01T10:30:52;102462.56;;;6.79;72.21
62600;BME280;48671;48.922;2.346;2022-12-01T10:33:25;102440.16;;;6.74;72.16
62600;BME280;48671;48.922;2.346;2022-12-01T10:35:52;102441.88;;;6.76;72.24
62600;BME280;48671;48.922;2.346;2022-12-01T10:38:24;102441.91;;;6.81;72.34
62600;BME280;48671;48.922;2.346;2022-12-01T10:40:51;102443.63;;;6.82;71.77
62600;BME280;48671;48.922;2.346;2022-12-01T10:43:36;102436.75;;;6.84;72.21
62600;BME280;48671;48.922;2.346;2022-12-01T10:46:18;102440.22;;;6.88;71.67
62600;BME280;48671;48.922;2.346;2022-12-01T10:49:06;102442.75;;;6.82;72.08
62600;BME280;48671;48.922;2.346;2022-12-01T10:51:48;102430.66;;;6.79;72.20
62600;BME280;48671;48.922;2.346;2022-12-01T10:54:15;102420.31;;;6.76;71.97
62600;BME280;48671;48.922;2.346;2022-12-01T10:56:42;102422.91;;;6.76;72.24
62600;BME280;48671;48.922;2.346;2022-12-01T10:59:35;102425.53;;;6.85;72.13
62600;BME280;48671;48.922;2.346;2022-12-01T11:02:04;102419.47;;;6.80;71.55
62600;BME280;48671;48.922;2.346;2022-12-01T11:05:05;102422.94;;;6.85;71.63
62600;BME280;48671;48.922;2.346;2022-12-01T11:07:32;102418.63;;;6.86;71.75
62600;BME280;48671;48.922;2.346;2022-12-01T11:10:12;102411.75;;;6.88;71.79
62600;BME280;48671;48.922;2.346;2022-12-01T11:12:39;102411.75;;;6.92;71.40
62600;BME280;48671;48.922;2.346;2022-12-01T11:15:07;102416.94;;;6.95;71.24
62600;BME280;48671;48.922;2.346;2022-12-01T11:17:42;102416.06;;;6.92;71.51
62600;BME280;48671;48.922;2.346;2022-12-01T11:23:20;102416.03;;;6.86;71.66
62600;BME280;48671;48.922;2.346;2022-12-01T11:26:05;102418.66;;;6.90;72.11
62600;BME280;48671;48.922;2.346;2022-12-01T11:28:35;102417.75;;;6.85;71.57
62600;BME280;48671;48.922;2.346;2022-12-01T11:31:04;102413.44;;;6.83;72.05
62600;BME280;48671;48.922;2.346;2022-12-01T11:33:44;102421.22;;;6.81;71.74
62600;BME280;48671;48.922;2.346;2022-12-01T11:36:19;102405.66;;;6.78;71.57
62600;BME280;48671;48.922;2.346;2022-12-01T11:38:46;102411.72;;;6.77;71.67
62600;BME280;48671;48.922;2.346;2022-12-01T11:41:28;102403.06;;;6.76;71.64
62600;BME280;48671;48.922;2.346;2022-12-01T11:43:56;102400.47;;;6.75;71.22
62600;BME280;48671;48.922;2.346;2022-12-01T11:46:30;102399.63;;;6.77;71.43
62600;BME280;48671;48.922;2.346;2022-12-01T11:48:58;102396.19;;;6.82;71.86
62600;BME280;48671;48.922;2.346;2022-12-01T11:51:32;102397.94;;;6.86;71.51
62600;BME280;48671;48.922;2.346;2022-12-01T11:54:22;102399.66;;;6.84;71.50
62600;BME280;48671;48.922;2.346;2022-12-01T11:56:50;102398.78;;;6.86;71.65
62600;BME280;48671;48.922;2.346;2022-12-01T11:59:22;102401.38;;;6.89;71.52
62600;BME280;48671;48.922;2.346;2022-12-01T12:10:05;102395.41;;;7.09;71.78
62600;BME280;48671;48.922;2.346;2022-12-01T12:12:58;102385.94;;;7.14;71.63
62600;BME280;48671;48.922;2.346;2022-12-01T12:24:24;102392.88;;;7.38;71.23
62600;BME280;48671;48.922;2.346;2022-12-01T12:34:59;102386.84;;;7.37;70.79
62600;BME280;48671;48.922;2.346;2022-12-01T12:37:48;102380.78;;;7.29;70.70
62600;BME280;48671;48.922;2.346;2022-12-01T12:41:02;102381.69;;;7.33;71.29
62600;BME280;48671;48.922;2.346;2022-12-01T12:49:02;102385.13;;;7.38;70.76
62600;BME280;48671;48.922;2.346;2022-12-01T12:56:29;102379.94;;;7.27;70.39
62600;BME280;48671;48.922;2.346;2022-12-01T12:58:59;102390.28;;;7.28;70.29
62600;BME280;48671;48.922;2.346;2022-12-01T13:01:32;102382.53;;;7.33;70.88
62600;BME280;48671;48.922;2.346;2022-12-01T13:06:46;102367.84;;;7.24;70.19
62600;BME280;48671;48.922;2.346;2022-12-01T13:09:41;102372.16;;;7.25;69.72
62600;BME280;48671;48.922;2.346;2022-12-01T13:12:12;102373.03;;;7.23;70.34
62600;BME280;48671;48.922;2.346;2022-12-01T13:17:21;102373.88;;;7.17;70.50
62600;BME280;48671;48.922;2.346;2022-12-01T13:19:48;102361.81;;;7.19;70.65
62600;BME280;48671;48.922;2.346;2022-12-01T13:22:15;102365.25;;;7.20;70.48
62600;BME280;48671;48.922;2.346;2022-12-01T13:24:42;102358.38;;;7.26;70.84
62600;BME280;48671;48.922;2.346;2022-12-01T13:29:42;102354.03;;;7.32;69.90
62600;BME280;48671;48.922;2.346;2022-12-01T13:32:26;102354.91;;;7.31;70.03
62600;BME280;48671;48.922;2.346;2022-12-01T13:34:53;102348.84;;;7.28;70.15
62600;BME280;48671;48.922;2.346;2022-12-01T13:37:36;102349.72;;;7.31;70.55
62600;BME280;48671;48.922;2.346;2022-12-01T13:40:21;102346.28;;;7.33;70.97
62600;BME280;48671;48.922;2.346;2022-12-01T13:43:03;102346.28;;;7.38;70.33
62600;BME280;48671;48.922;2.346;2022-12-01T13:45:35;102354.91;;;7.38;70.81
62600;BME280;48671;48.922;2.346;2022-12-01T13:48:02;102344.56;;;7.37;70.46
62600;BME280;48671;48.922;2.346;2022-12-01T13:50:56;102338.53;;;7.33;70.30
62600;BME280;48671;48.922;2.346;2022-12-01T13:53:30;102335.06;;;7.28;69.42
62600;BME280;48671;48.922;2.346;2022-12-01T13:58:49;102332.47;;;7.20;70.16
62600;BME280;48671;48.922;2.346;2022-12-01T14:09:27;102325.56;;;7.19;69.96
62600;BME280;48671;48.922;2.346;2022-12-01T14:12:01;102328.16;;;7.24;69.42
62600;BME280;48671;48.922;2.346;2022-12-01T14:14:39;102326.44;;;7.23;69.97
62600;BME280;48671;48.922;2.346;2022-12-01T14:17:24;102321.25;;;7.23;69.58
62600;BME280;48671;48.922;2.346;2022-12-01T14:19:51;102313.47;;;7.17;69.32
62600;BME280;48671;48.922;2.346;2022-12-01T14:22:42;102322.97;;;7.18;69.52
62600;BME280;48671;48.922;2.346;2022-12-01T14:25:24;102318.63;;;7.12;69.30
62600;BME280;48671;48.922;2.346;2022-12-01T14:27:59;102317.78;;;7.07;69.28
62600;BME280;48671;48.922;2.346;2022-12-01T14:36:38;102316.06;;;7.11;69.60
62600;BME280;48671;48.922;2.346;2022-12-01T14:39:11;102322.09;;;7.13;69.60
62600;BME280;48671;48.922;2.346;2022-12-01T14:41:48;102316.91;;;7.16;69.92
62600;BME280;48671;48.922;2.346;2022-12-01T14:46:43;102319.50;;;7.25;69.93
62600;BME280;48671;48.922;2.346;2022-12-01T14:49:20;102321.25;;;7.31;69.51
62600;BME280;48671;48.922;2.346;2022-12-01T14:51:51;102309.16;;;7.28;69.17
62600;BME280;48671;48.922;2.346;2022-12-01T14:54:23;102307.44;;;7.30;69.13
62600;BME280;48671;48.922;2.346;2022-12-01T14:56:52;102303.13;;;7.26;68.60
62600;BME280;48671;48.922;2.346;2022-12-01T14:59:21;102310.91;;;7.26;69.31